Time;durP1;ratioP1;P1;durP2;ratioP2;P2;SDS_P1;SDS_P2;PMS_P1;PMS_P2;Temp;Humidity;BMP_temperature;BMP_pressure;BME280_temperature;BME280_humidity;BME280_pressure;Samples;Min_cycle;Max_cycle;Signal;HPM_P1;HPM_P2
2022/03/05 00:02:21;;;;;;;21.67;11.50;;;0.60;99.90;;;;;;5050696;28;20037;-53
2022/03/05 00:04:47;;;;;;;22.15;11.30;;;0.70;99.90;;;;;;5050378;28;20489;-53
2022/03/05 00:07:13;;;;;;;21.95;11.30;;;0.70;99.90;;;;;;5050925;28;20041;-51
2022/03/05 00:09:38;;;;;;;21.80;11.77;;;0.70;99.90;;;;;;5051078;28;20033;-51
2022/03/05 00:12:04;;;;;;;21.38;11.45;;;0.70;99.90;;;;;;5050949;28;20119;-51
2022/03/05 00:14:29;;;;;;;21.13;10.90;;;0.60;99.90;;;;;;5051082;28;20112;-52
2022/03/05 00:16:55;;;;;;;21.40;11.15;;;0.70;99.90;;;;;;5050656;28;20511;-53
2022/03/05 00:19:21;;;;;;;21.60;10.90;;;0.70;99.90;;;;;;5050317;28;20047;-53
2022/03/05 00:21:47;;;;;;;23.90;11.52;;;0.70;99.90;;;;;;5050928;28;20076;-53
2022/03/05 00:24:12;;;;;;;24.10;11.82;;;0.70;99.90;;;;;;5051390;28;20037;-53
2022/03/05 00:26:38;;;;;;;21.90;11.65;;;0.70;99.90;;;;;;5050720;28;20413;-52
2022/03/05 00:29:04;;;;;;;19.50;10.68;;;0.70;99.90;;;;;;5050576;28;20052;-51
2022/03/05 00:31:30;;;;;;;23.48;11.98;;;0.70;99.90;;;;;;5052168;28;20047;-50
2022/03/05 00:33:55;;;;;;;21.67;10.98;;;0.70;99.90;;;;;;5054333;28;20037;-52
2022/03/05 00:36:21;;;;;;;24.00;12.02;;;0.70;99.90;;;;;;5054287;28;20037;-53
2022/03/05 00:38:47;;;;;;;21.17;10.63;;;0.80;99.90;;;;;;5051935;28;20047;-52
2022/03/05 00:41:13;;;;;;;22.60;11.30;;;0.80;99.90;;;;;;5046961;28;20048;-51
2022/03/05 00:43:38;;;;;;;22.38;10.98;;;0.70;99.90;;;;;;5052603;28;20040;-53
2022/03/05 00:46:04;;;;;;;22.58;11.82;;;0.80;99.90;;;;;;5052348;28;20049;-52
2022/03/05 00:48:29;;;;;;;19.38;10.40;;;0.70;99.90;;;;;;5053789;28;20416;-52
2022/03/05 00:50:55;;;;;;;20.02;10.68;;;0.70;99.90;;;;;;5054377;28;20071;-53
2022/03/05 00:53:21;;;;;;;21.02;11.23;;;0.70;99.90;;;;;;5054446;28;20041;-52
2022/03/05 00:55:47;;;;;;;22.42;11.23;;;0.70;99.90;;;;;;5054293;28;20107;-52
2022/03/05 00:58:14;;;;;;;23.67;11.30;;;0.70;99.90;;;;;;5035865;28;20037;-52
2022/03/05 01:00:41;;;;;;;22.13;10.73;;;0.70;99.90;;;;;;5053683;28;20032;-52
2022/03/05 01:03:07;;;;;;;22.02;11.43;;;0.70;99.90;;;;;;5052622;28;20029;-53
2022/03/05 01:05:32;;;;;;;24.13;11.65;;;0.70;99.90;;;;;;5045491;28;20043;-51
2022/03/05 01:07:58;;;;;;;22.25;10.80;;;0.70;99.90;;;;;;5053741;28;20040;-52
2022/03/05 01:10:24;;;;;;;20.88;11.27;;;0.70;99.90;;;;;;5053999;28;20036;-52
2022/03/05 01:12:49;;;;;;;24.52;11.82;;;0.70;99.90;;;;;;5053633;28;20408;-52
2022/03/05 01:15:15;;;;;;;21.85;11.30;;;0.60;99.90;;;;;;5053765;28;20467;-51
2022/03/05 01:17:41;;;;;;;20.80;11.32;;;0.70;99.90;;;;;;5053082;28;20104;-49
2022/03/05 01:20:07;;;;;;;19.33;10.52;;;0.70;99.90;;;;;;5053826;28;20101;-50
2022/03/05 01:22:32;;;;;;;20.40;10.80;;;0.80;99.90;;;;;;5053959;28;20044;-53
2022/03/05 01:24:58;;;;;;;21.48;10.70;;;0.70;99.90;;;;;;5053444;28;20033;-52
2022/03/05 01:27:23;;;;;;;19.55;10.20;;;0.70;99.90;;;;;;5053389;28;20041;-50
2022/03/05 01:29:50;;;;;;;22.58;10.60;;;0.70;99.90;;;;;;5052115;28;20130;-53
2022/03/05 01:32:16;;;;;;;21.70;11.07;;;0.70;99.90;;;;;;5052196;28;20076;-54
2022/03/05 01:34:41;;;;;;;24.67;11.35;;;0.70;99.90;;;;;;5045957;28;20065;-50
2022/03/05 01:37:07;;;;;;;19.92;10.27;;;0.60;99.90;;;;;;5041254;28;20169;-52
2022/03/05 01:39:32;;;;;;;21.02;10.55;;;0.80;99.90;;;;;;5033617;28;20623;-53
2022/03/05 01:41:58;;;;;;;19.60;10.15;;;0.80;99.90;;;;;;5033404;28;20050;-53
2022/03/05 01:44:24;;;;;;;20.52;10.15;;;0.70;99.90;;;;;;5032682;28;20034;-54
2022/03/05 01:46:50;;;;;;;23.25;10.20;;;0.60;99.90;;;;;;5049145;28;20040;-53
2022/03/05 01:49:16;;;;;;;20.13;10.35;;;0.60;99.90;;;;;;5053299;28;20552;-51
2022/03/05 01:51:42;;;;;;;21.85;10.98;;;0.60;99.90;;;;;;5050682;28;20033;-53
2022/03/05 01:54:09;;;;;;;19.77;9.82;;;0.60;99.90;;;;;;5044604;28;20163;-53
2022/03/05 01:56:37;;;;;;;18.92;9.48;;;0.60;99.90;;;;;;5052742;28;20043;-54
2022/03/05 01:59:03;;;;;;;20.58;9.88;;;0.70;99.90;;;;;;5053061;28;20036;-53
2022/03/05 02:01:29;;;;;;;20.17;9.27;;;0.70;99.90;;;;;;5051274;28;20037;-53
2022/03/05 02:03:55;;;;;;;19.83;9.95;;;0.60;99.90;;;;;;5052853;28;20776;-54
2022/03/05 02:06:21;;;;;;;20.63;9.73;;;0.70;99.90;;;;;;5052789;28;20412;-53
2022/03/05 02:08:48;;;;;;;18.75;10.20;;;0.60;99.90;;;;;;5052875;28;20115;-53
2022/03/05 02:11:13;;;;;;;18.52;8.90;;;0.50;99.90;;;;;;5053383;28;20043;-51
2022/03/05 02:13:39;;;;;;;19.98;9.88;;;0.60;99.90;;;;;;5052672;28;20510;-50
2022/03/05 02:16:05;;;;;;;18.48;9.80;;;0.50;99.90;;;;;;5052062;28;20125;-49
2022/03/05 02:18:30;;;;;;;18.73;9.15;;;0.40;99.90;;;;;;5051691;28;20037;-51
2022/03/05 02:20:56;;;;;;;19.42;9.98;;;0.40;99.90;;;;;;5052407;28;20413;-52
2022/03/05 02:23:22;;;;;;;19.90;9.93;;;0.40;99.90;;;;;;5052375;28;20041;-52
2022/03/05 02:26:03;;;;;;;21.50;9.80;;;0.30;99.90;;;;;;5052412;28;20049;-51
2022/03/05 02:28:30;;;;;;;21.45;10.38;;;0.30;99.90;;;;;;5052021;28;20412;-54
2022/03/05 02:30:56;;;;;;;20.50;9.90;;;0.40;99.90;;;;;;5052296;28;20098;-52
2022/03/05 02:33:22;;;;;;;19.00;9.70;;;0.30;99.90;;;;;;5052533;28;20400;-49
2022/03/05 02:35:48;;;;;;;18.30;9.65;;;0.30;99.90;;;;;;5052028;28;20033;-49
2022/03/05 02:38:16;;;;;;;18.67;9.65;;;0.30;99.90;;;;;;5052025;28;20033;-49
2022/03/05 02:40:43;;;;;;;18.58;9.32;;;0.30;99.90;;;;;;5052019;28;20037;-51
2022/03/05 02:43:10;;;;;;;20.95;9.95;;;0.30;99.90;;;;;;5050916;28;20037;-51
2022/03/05 02:45:36;;;;;;;21.90;10.70;;;0.20;99.90;;;;;;5052429;28;20041;-50
2022/03/05 02:48:04;;;;;;;19.00;9.60;;;0.20;99.90;;;;;;5050760;28;20443;-49
2022/03/05 02:50:30;;;;;;;20.67;9.52;;;0.20;99.90;;;;;;5050476;28;20041;-49
2022/03/05 02:52:56;;;;;;;19.60;9.32;;;0.20;99.90;;;;;;5052004;28;20055;-50
2022/03/05 02:55:22;;;;;;;21.50;10.27;;;0.20;99.90;;;;;;5051510;28;20048;-49
2022/03/05 02:57:48;;;;;;;20.85;9.77;;;0.20;99.90;;;;;;5050367;28;20437;-51
2022/03/05 03:00:15;;;;;;;18.35;8.60;;;0.20;99.90;;;;;;5051924;28;20067;-52
2022/03/05 03:02:41;;;;;;;18.70;9.18;;;0.20;99.90;;;;;;5051807;28;20511;-49
2022/03/05 03:05:07;;;;;;;18.40;9.38;;;0.20;99.90;;;;;;5051391;28;20033;-50
2022/03/05 03:07:33;;;;;;;17.42;8.93;;;0.20;99.90;;;;;;5051549;28;20036;-50
2022/03/05 03:09:58;;;;;;;18.52;8.82;;;0.10;99.90;;;;;;5051557;28;20037;-50
2022/03/05 03:12:25;;;;;;;17.15;8.57;;;0.10;99.90;;;;;;5051483;28;20040;-50
2022/03/05 03:14:51;;;;;;;21.85;9.50;;;0.20;99.90;;;;;;5051932;28;20098;-51
2022/03/05 03:17:17;;;;;;;20.92;9.25;;;0.20;99.90;;;;;;5051259;28;20451;-50
2022/03/05 03:19:43;;;;;;;18.48;8.40;;;0.20;99.90;;;;;;5051579;28;20044;-51
2022/03/05 03:22:08;;;;;;;19.02;9.15;;;0.10;99.90;;;;;;5051494;28;20033;-52
2022/03/05 03:24:34;;;;;;;16.15;8.70;;;0.10;99.90;;;;;;5051450;28;20124;-52
2022/03/05 03:27:00;;;;;;;19.95;9.73;;;0.10;99.90;;;;;;5050630;28;20033;-51
2022/03/05 03:29:25;;;;;;;18.58;8.98;;;0.10;99.90;;;;;;5050109;28;20036;-52
2022/03/05 03:31:51;;;;;;;17.73;8.40;;;0.00;99.90;;;;;;5051487;28;20387;-53
2022/03/05 03:34:16;;;;;;;19.50;8.88;;;0.10;99.90;;;;;;5051387;28;20497;-54
2022/03/05 03:36:42;;;;;;;18.67;8.35;;;0.00;99.90;;;;;;5050978;28;20041;-50
2022/03/05 03:39:08;;;;;;;17.83;8.50;;;0.10;99.90;;;;;;5050940;28;20496;-52
2022/03/05 03:41:33;;;;;;;18.15;9.35;;;0.10;99.90;;;;;;5050888;28;20094;-51
2022/03/05 03:43:59;;;;;;;17.52;8.63;;;0.10;99.90;;;;;;5050083;28;20111;-55
2022/03/05 03:46:24;;;;;;;16.52;7.82;;;0.00;99.90;;;;;;5051023;28;20386;-50
2022/03/05 03:48:50;;;;;;;16.35;8.27;;;0.00;99.90;;;;;;5051666;28;20041;-55
2022/03/05 03:51:16;;;;;;;20.83;9.25;;;0.00;99.90;;;;;;5049966;28;20048;-52
2022/03/05 03:53:41;;;;;;;17.35;9.18;;;0.10;99.90;;;;;;5051037;28;20410;-52
2022/03/05 03:56:07;;;;;;;17.88;8.80;;;0.00;99.90;;;;;;5050088;28;20041;-55
2022/03/05 03:58:32;;;;;;;19.67;8.55;;;-0.10;99.90;;;;;;5051353;28;20037;-52
2022/03/05 04:00:58;;;;;;;19.17;9.10;;;-0.10;99.90;;;;;;5050914;28;20378;-52
2022/03/05 04:03:23;;;;;;;15.98;8.48;;;0.10;99.90;;;;;;5051202;28;20037;-52
2022/03/05 04:05:49;;;;;;;21.50;8.73;;;-0.20;99.90;;;;;;5051429;28;20053;-50
2022/03/05 04:10:58;;;;;;;20.48;9.60;;;-0.10;99.90;;;;;;5054849;28;20126;-53
2022/03/05 04:13:24;;;;;;;21.55;8.63;;;-0.10;99.90;;;;;;5055119;28;20505;-53
2022/03/05 04:15:49;;;;;;;17.77;8.65;;;-0.20;99.90;;;;;;5054923;28;20571;-54
2022/03/05 04:18:15;;;;;;;18.05;8.57;;;-0.20;99.90;;;;;;5054842;28;20044;-52
2022/03/05 04:20:40;;;;;;;21.75;9.43;;;-0.20;99.90;;;;;;5054708;28;20064;-53
2022/03/05 04:23:06;;;;;;;20.38;9.70;;;-0.30;99.90;;;;;;5054264;28;20029;-52
2022/03/05 04:25:32;;;;;;;18.55;8.55;;;-0.20;99.90;;;;;;5054077;28;20041;-54
2022/03/05 04:27:57;;;;;;;17.10;8.02;;;-0.20;99.90;;;;;;5048002;28;20044;-53
2022/03/05 04:30:23;;;;;;;17.52;8.73;;;-0.20;99.90;;;;;;5043912;28;20034;-51
2022/03/05 04:32:48;;;;;;;20.02;9.45;;;-0.30;99.90;;;;;;5046208;28;20424;-52
2022/03/05 04:35:14;;;;;;;21.00;9.15;;;-0.30;99.90;;;;;;5054367;28;20071;-55
2022/03/05 04:37:40;;;;;;;20.52;9.60;;;-0.30;99.90;;;;;;5053935;28;20037;-55
2022/03/05 04:40:07;;;;;;;21.75;9.15;;;-0.30;99.90;;;;;;5054385;28;20043;-53
2022/03/05 04:42:32;;;;;;;22.38;9.43;;;-0.30;99.90;;;;;;5054747;28;20037;-54
2022/03/05 04:44:58;;;;;;;21.08;9.10;;;-0.30;99.90;;;;;;5054475;28;20044;-49
2022/03/05 04:47:24;;;;;;;19.10;9.32;;;-0.30;99.90;;;;;;5054217;28;20029;-49
2022/03/05 04:49:50;;;;;;;21.10;9.30;;;-0.30;99.90;;;;;;5054271;28;20416;-51
2022/03/05 04:52:16;;;;;;;22.40;9.57;;;-0.30;99.90;;;;;;5053448;28;20511;-52
2022/03/05 04:54:41;;;;;;;26.20;9.82;;;-0.40;99.90;;;;;;5054377;28;20072;-52
2022/03/05 04:57:07;;;;;;;24.33;9.35;;;-0.30;99.90;;;;;;5053948;28;20470;-55
2022/03/05 04:59:33;;;;;;;20.27;9.25;;;-0.30;99.90;;;;;;5054082;28;20412;-54
2022/03/05 05:01:58;;;;;;;23.20;10.10;;;-0.40;99.90;;;;;;5054255;28;20102;-54
2022/03/05 05:04:25;;;;;;;22.33;9.68;;;-0.30;99.90;;;;;;5053569;28;20107;-54
2022/03/05 05:06:50;;;;;;;21.10;9.95;;;-0.40;99.90;;;;;;5052589;28;20094;-54
2022/03/05 05:09:16;;;;;;;20.80;8.40;;;-0.30;99.90;;;;;;5053966;28;20135;-53
2022/03/05 05:11:42;;;;;;;24.90;10.52;;;-0.40;99.90;;;;;;5054176;28;20044;-52
2022/03/05 05:14:08;;;;;;;23.30;10.15;;;-0.30;99.90;;;;;;5053797;28;20113;-54
2022/03/05 05:16:34;;;;;;;20.20;9.55;;;-0.30;99.90;;;;;;5051992;28;20688;-50
2022/03/05 05:21:44;;;;;;;21.77;9.60;;;-0.40;99.90;;;;;;5053701;28;20131;-53
2022/03/05 05:24:09;;;;;;;22.33;9.90;;;-0.40;99.90;;;;;;5053897;28;20142;-52
2022/03/05 05:26:35;;;;;;;21.35;8.85;;;-0.40;99.90;;;;;;5053582;28;20056;-52
2022/03/05 05:29:01;;;;;;;26.10;11.05;;;-0.40;99.90;;;;;;5053383;28;20123;-54
2022/03/05 05:31:26;;;;;;;21.38;10.07;;;-0.40;99.90;;;;;;5053509;28;20124;-51
2022/03/05 05:33:52;;;;;;;21.92;10.35;;;-0.40;99.90;;;;;;5053250;28;20048;-53
2022/03/05 05:36:18;;;;;;;22.17;10.35;;;-0.50;99.90;;;;;;5052864;28;20052;-54
2022/03/05 05:38:44;;;;;;;24.90;10.27;;;-0.50;99.90;;;;;;5053624;28;20036;-50
2022/03/05 05:41:09;;;;;;;21.40;9.48;;;-0.40;99.90;;;;;;5053564;28;20037;-54
2022/03/05 05:43:36;;;;;;;21.52;10.02;;;-0.30;99.90;;;;;;5053218;28;20021;-54
2022/03/05 05:46:01;;;;;;;22.05;10.00;;;-0.40;99.90;;;;;;5053261;28;20041;-52
2022/03/05 05:48:27;;;;;;;20.70;9.38;;;-0.40;99.90;;;;;;5052718;28;20037;-50
2022/03/05 05:50:52;;;;;;;21.67;8.90;;;-0.30;99.90;;;;;;5053301;28;20041;-51
2022/03/05 05:53:18;;;;;;;23.58;10.32;;;-0.30;99.90;;;;;;5053293;28;20059;-52
2022/03/05 05:55:43;;;;;;;21.25;9.13;;;-0.30;99.90;;;;;;5053152;28;20047;-54
2022/03/05 05:58:09;;;;;;;20.83;8.80;;;-0.40;99.90;;;;;;5052763;28;20103;-53
2022/03/05 06:00:35;;;;;;;23.02;9.63;;;-0.40;99.90;;;;;;5034948;28;20045;-51
2022/03/05 06:03:00;;;;;;;24.42;10.75;;;-0.40;99.90;;;;;;5053119;28;20052;-50
2022/03/05 06:05:25;;;;;;;22.20;9.30;;;-0.50;99.90;;;;;;5052467;28;20120;-51
2022/03/05 06:07:51;;;;;;;20.70;9.38;;;-0.40;99.90;;;;;;5050934;28;20051;-51
2022/03/05 06:10:17;;;;;;;22.92;9.45;;;-0.50;99.90;;;;;;5041753;28;20511;-53
2022/03/05 06:12:44;;;;;;;24.70;10.70;;;-0.50;99.90;;;;;;5046650;28;20040;-50
2022/03/05 06:15:10;;;;;;;24.88;10.23;;;-0.50;99.90;;;;;;5051300;28;20049;-54
2022/03/05 06:17:40;;;;;;;22.40;9.25;;;-0.60;99.90;;;;;;5044329;28;20503;-50
2022/03/05 06:20:06;;;;;;;20.10;8.02;;;-0.40;99.90;;;;;;5049732;28;20036;-51
2022/03/05 06:22:32;;;;;;;22.33;9.75;;;-0.40;99.90;;;;;;5043655;28;20480;-52
2022/03/05 06:24:57;;;;;;;19.30;8.50;;;-0.50;99.90;;;;;;5052160;28;20051;-53
2022/03/05 06:27:23;;;;;;;22.00;9.48;;;-0.40;99.90;;;;;;5051961;28;20069;-50
2022/03/05 06:29:48;;;;;;;23.50;10.00;;;-0.60;99.90;;;;;;5051584;28;20173;-50
2022/03/05 06:32:14;;;;;;;24.05;9.82;;;-0.50;99.90;;;;;;5052193;28;20120;-52
2022/03/05 06:34:40;;;;;;;22.60;9.13;;;-0.60;99.90;;;;;;5052521;28;20051;-51
2022/03/05 06:37:06;;;;;;;20.77;8.20;;;-0.50;99.90;;;;;;5051905;28;20239;-52
2022/03/05 06:39:31;;;;;;;21.23;8.35;;;-0.50;99.90;;;;;;5050802;28;20544;-53
2022/03/05 06:41:57;;;;;;;21.00;9.57;;;-0.40;99.90;;;;;;5040410;28;20120;-54
2022/03/05 06:44:23;;;;;;;20.58;8.00;;;-0.50;99.90;;;;;;5038878;28;20394;-54
2022/03/05 06:46:48;;;;;;;23.92;10.18;;;-0.60;99.90;;;;;;5051687;28;20172;-54
2022/03/05 06:49:14;;;;;;;20.13;9.27;;;-0.50;99.90;;;;;;5052110;28;20492;-54
2022/03/05 06:51:40;;;;;;;20.45;9.02;;;-0.50;99.90;;;;;;5050992;28;20037;-53
2022/03/05 06:54:05;;;;;;;23.25;9.88;;;-0.50;99.90;;;;;;5052092;28;20033;-54
2022/03/05 06:56:31;;;;;;;23.65;9.98;;;-0.50;99.90;;;;;;5064560;28;20484;-52
2022/03/05 06:58:57;;;;;;;21.42;9.93;;;-0.60;99.90;;;;;;5050829;28;20401;-53
2022/03/05 07:01:23;;;;;;;22.70;9.13;;;-0.60;99.90;;;;;;5051563;28;20032;-54
2022/03/05 07:03:48;;;;;;;21.63;9.43;;;-0.50;99.90;;;;;;5043474;28;20052;-53
2022/03/05 07:06:14;;;;;;;20.83;9.35;;;-0.40;99.90;;;;;;5045214;28;20123;-54
2022/03/05 07:08:39;;;;;;;22.02;9.57;;;-0.40;99.90;;;;;;5042323;28;20037;-54
2022/03/05 07:11:05;;;;;;;20.05;9.35;;;-0.30;99.90;;;;;;5043930;28;20404;-53
2022/03/05 07:13:30;;;;;;;20.77;9.32;;;-0.40;99.90;;;;;;5042017;28;20033;-53
2022/03/05 07:15:56;;;;;;;18.80;8.73;;;-0.30;99.90;;;;;;5051342;28;20040;-50
2022/03/05 07:18:21;;;;;;;17.73;8.35;;;-0.20;99.90;;;;;;5046603;28;20090;-54
2022/03/05 07:20:47;;;;;;;22.75;9.18;;;-0.20;99.90;;;;;;5047236;28;20040;-49
2022/03/05 07:23:12;;;;;;;21.05;9.32;;;-0.20;99.90;;;;;;5046769;28;20177;-50
2022/03/05 07:25:39;;;;;;;19.83;8.40;;;-0.10;99.90;;;;;;5042784;28;20047;-52
2022/03/05 07:28:10;;;;;;;19.42;8.65;;;-0.10;99.90;;;;;;5024329;28;20239;-51
2022/03/05 07:30:38;;;;;;;19.10;9.15;;;0.00;99.90;;;;;;5049845;28;20132;-53
2022/03/05 07:33:05;;;;;;;17.85;8.55;;;0.10;99.90;;;;;;5025596;28;20058;-55
2022/03/05 07:35:30;;;;;;;19.77;8.55;;;0.20;99.90;;;;;;5040363;28;20038;-52
2022/03/05 07:37:56;;;;;;;20.75;8.88;;;0.20;99.90;;;;;;5037419;28;20040;-54
2022/03/05 07:40:22;;;;;;;18.30;8.57;;;0.30;99.90;;;;;;5028690;28;20486;-54
2022/03/05 07:42:48;;;;;;;18.13;8.13;;;0.40;99.90;;;;;;5031266;28;20412;-54
2022/03/05 07:45:13;;;;;;;17.92;8.80;;;0.40;99.90;;;;;;5030750;28;20049;-55
2022/03/05 07:47:39;;;;;;;20.10;9.73;;;0.60;99.90;;;;;;5031314;28;20444;-54
2022/03/05 07:50:05;;;;;;;19.02;8.52;;;0.70;99.90;;;;;;5030045;28;20041;-54
2022/03/05 07:52:31;;;;;;;19.75;9.07;;;0.70;99.90;;;;;;5050058;28;20489;-55
2022/03/05 07:54:57;;;;;;;19.40;8.73;;;0.90;99.90;;;;;;5051251;28;20029;-54
2022/03/05 07:57:22;;;;;;;19.02;9.23;;;1.00;99.90;;;;;;5050949;28;20428;-54
2022/03/05 07:59:48;;;;;;;21.75;9.13;;;1.10;99.90;;;;;;5050573;28;20393;-55
2022/03/05 08:02:16;;;;;;;19.60;9.25;;;1.10;99.90;;;;;;5051311;28;20303;-55
2022/03/05 08:04:44;;;;;;;19.25;8.32;;;1.30;99.90;;;;;;5051085;28;20063;-54
2022/03/05 08:07:10;;;;;;;20.95;9.35;;;1.30;99.90;;;;;;5049833;28;20120;-54
2022/03/05 08:09:36;;;;;;;19.67;8.20;;;1.40;99.90;;;;;;5033461;28;20671;-54
2022/03/05 08:12:05;;;;;;;23.63;9.88;;;1.40;99.90;;;;;;5051101;28;20094;-55
2022/03/05 08:14:31;;;;;;;20.23;9.23;;;1.60;99.90;;;;;;5049735;28;20473;-55
2022/03/05 08:16:57;;;;;;;18.65;9.48;;;1.70;99.90;;;;;;5050753;28;20124;-54
2022/03/05 08:19:22;;;;;;;20.52;9.30;;;1.60;99.90;;;;;;5051101;28;20055;-54
2022/03/05 08:21:48;;;;;;;17.63;9.35;;;1.70;99.90;;;;;;5049832;28;20073;-55
2022/03/05 08:24:13;;;;;;;22.25;9.65;;;1.80;99.90;;;;;;5051000;28;20037;-55
2022/03/05 08:26:39;;;;;;;21.73;9.20;;;1.90;99.90;;;;;;5050623;28;20041;-55
2022/03/05 08:29:04;;;;;;;20.90;9.80;;;1.80;99.90;;;;;;5050853;28;20052;-55
2022/03/05 08:31:33;;;;;;;24.05;10.10;;;1.80;99.90;;;;;;5051145;28;20051;-55
2022/03/05 08:34:01;;;;;;;19.27;9.70;;;2.00;99.90;;;;;;5050984;28;20055;-55
2022/03/05 08:36:30;;;;;;;21.27;10.48;;;2.00;99.90;;;;;;5050599;28;20044;-55
2022/03/05 08:38:56;;;;;;;19.83;8.90;;;2.00;99.90;;;;;;5050780;28;20033;-54
2022/03/05 08:41:22;;;;;;;21.73;10.60;;;2.10;99.90;;;;;;5050572;28;20036;-54
2022/03/05 08:43:48;;;;;;;22.33;10.43;;;2.10;99.90;;;;;;5050695;28;20393;-55
2022/03/05 08:46:13;;;;;;;23.15;10.85;;;2.10;99.90;;;;;;5050710;28;20036;-55
2022/03/05 08:48:39;;;;;;;25.35;10.32;;;2.20;99.90;;;;;;5050886;28;20040;-55
2022/03/05 08:51:04;;;;;;;22.23;10.80;;;2.10;99.90;;;;;;5050667;28;20143;-55
2022/03/05 08:53:30;;;;;;;21.75;9.73;;;2.20;99.90;;;;;;5052712;28;20562;-54
2022/03/05 08:55:56;;;;;;;18.05;8.85;;;2.30;99.90;;;;;;5053886;28;20037;-51
2022/03/05 08:58:22;;;;;;;24.25;10.98;;;2.30;99.90;;;;;;5054132;28;20289;-55
2022/03/05 09:00:49;;;;;;;24.85;12.05;;;2.30;99.90;;;;;;5054002;28;20125;-54
2022/03/05 09:03:15;;;;;;;24.98;11.18;;;2.40;99.90;;;;;;5054125;28;20041;-54
2022/03/05 09:05:41;;;;;;;28.80;10.73;;;2.40;99.90;;;;;;5054119;28;20072;-54
2022/03/05 09:08:06;;;;;;;24.52;11.25;;;2.50;99.90;;;;;;5053829;28;20455;-54
2022/03/05 09:10:32;;;;;;;23.95;11.13;;;2.50;99.90;;;;;;5053557;28;20116;-51
2022/03/05 09:12:59;;;;;;;25.27;12.90;;;2.60;99.90;;;;;;5053830;28;20120;-55
2022/03/05 09:15:24;;;;;;;25.35;11.27;;;2.70;99.90;;;;;;5053962;28;20263;-55
2022/03/05 09:17:50;;;;;;;26.88;11.80;;;2.80;99.90;;;;;;5053803;28;20239;-54
2022/03/05 09:20:15;;;;;;;25.77;11.70;;;2.90;99.90;;;;;;5053766;28;20072;-54
2022/03/05 09:22:41;;;;;;;25.63;12.20;;;3.00;99.90;;;;;;5053673;28;20512;-54
2022/03/05 09:25:08;;;;;;;28.73;12.57;;;3.10;99.90;;;;;;5053406;28;20044;-54
2022/03/05 09:27:34;;;;;;;27.48;12.52;;;3.10;99.90;;;;;;5052088;28;20041;-54
2022/03/05 09:30:00;;;;;;;24.52;11.48;;;3.20;99.90;;;;;;5053665;28;20120;-54
2022/03/05 09:32:26;;;;;;;29.02;13.52;;;3.20;99.90;;;;;;5053716;28;20116;-54
2022/03/05 09:34:51;;;;;;;30.42;13.73;;;3.30;99.90;;;;;;5053580;28;20044;-54
2022/03/05 09:37:17;;;;;;;29.02;12.10;;;3.30;99.90;;;;;;5052002;28;20037;-54
2022/03/05 09:39:43;;;;;;;28.23;12.23;;;3.30;99.90;;;;;;5053746;28;20099;-54
2022/03/05 09:42:09;;;;;;;29.83;13.20;;;3.30;99.90;;;;;;5053346;28;20459;-55
2022/03/05 09:44:35;;;;;;;30.02;13.77;;;3.40;99.90;;;;;;5053504;28;20043;-55
2022/03/05 09:47:01;;;;;;;28.60;13.25;;;3.40;99.90;;;;;;5053259;28;20037;-54
2022/03/05 09:49:28;;;;;;;28.85;13.73;;;3.50;99.90;;;;;;5053613;28;20048;-54
2022/03/05 09:51:55;;;;;;;30.50;13.38;;;3.60;99.90;;;;;;5053404;28;20044;-54
2022/03/05 09:54:20;;;;;;;30.75;13.93;;;3.60;99.90;;;;;;5052969;28;20099;-54
2022/03/05 09:56:46;;;;;;;28.70;13.40;;;3.70;99.90;;;;;;5053060;28;20041;-54
2022/03/05 09:59:12;;;;;;;27.65;12.77;;;3.70;99.90;;;;;;5053041;28;20445;-54
2022/03/05 10:01:39;;;;;;;30.25;14.65;;;3.70;99.90;;;;;;5054012;28;20103;-53
2022/03/05 10:04:17;;;;;;;27.92;12.27;;;3.70;99.90;;;;;;5052501;28;20037;-52
2022/03/05 10:06:43;;;;;;;29.90;14.18;;;3.80;99.90;;;;;;5052557;28;20047;-52
2022/03/05 10:09:21;;;;;;;28.40;13.48;;;3.90;99.90;;;;;;5035121;28;20041;-54
2022/03/05 10:11:47;;;;;;;28.83;12.45;;;3.90;99.90;;;;;;5052994;28;20084;-53
2022/03/05 10:14:17;;;;;;;31.65;14.52;;;4.00;99.90;;;;;;5052860;28;20069;-55
2022/03/05 10:16:43;;;;;;;31.02;14.10;;;4.10;99.90;;;;;;5052587;28;20051;-53
2022/03/05 10:19:22;;;;;;;31.42;14.05;;;4.10;99.90;;;;;;5052583;28;20060;-53
2022/03/05 10:22:01;;;;;;;31.10;13.18;;;4.10;99.90;;;;;;5053033;28;20465;-53
2022/03/05 10:24:37;;;;;;;28.98;13.85;;;4.20;99.90;;;;;;5052465;28;20091;-52
2022/03/05 10:27:05;;;;;;;31.70;14.38;;;4.30;99.90;;;;;;5052368;28;20158;-54
2022/03/05 10:29:37;;;;;;;28.90;13.30;;;4.20;99.90;;;;;;5052438;28;20047;-51
2022/03/05 10:32:02;;;;;;;29.63;14.05;;;4.30;99.90;;;;;;5052467;28;20067;-53
2022/03/05 10:34:32;;;;;;;29.75;13.82;;;4.30;99.90;;;;;;5052442;28;20037;-52
2022/03/05 10:37:00;;;;;;;27.45;12.52;;;4.30;99.90;;;;;;5051925;28;20049;-53
2022/03/05 10:39:27;;;;;;;29.58;13.30;;;4.40;99.90;;;;;;5052376;28;20041;-51
2022/03/05 10:41:54;;;;;;;32.78;14.27;;;4.40;99.90;;;;;;5052268;28;20041;-53
2022/03/05 10:44:21;;;;;;;32.50;14.35;;;4.30;99.90;;;;;;5052314;28;20040;-53
2022/03/05 10:46:48;;;;;;;31.88;14.02;;;4.40;99.90;;;;;;5051898;28;20044;-53
2022/03/05 10:49:19;;;;;;;29.02;12.68;;;4.50;99.90;;;;;;5052162;28;20044;-53
2022/03/05 10:51:50;;;;;;;28.08;13.98;;;4.50;99.90;;;;;;5052244;28;20393;-53
2022/03/05 10:54:43;;;;;;;31.83;13.90;;;4.50;99.90;;;;;;5051530;28;20037;-53
2022/03/05 10:57:15;;;;;;;34.03;13.82;;;4.60;99.90;;;;;;5047520;28;20491;-52
2022/03/05 10:59:43;;;;;;;29.65;13.88;;;4.60;99.90;;;;;;5051970;28;20072;-49
2022/03/05 11:02:11;;;;;;;33.13;13.85;;;4.60;99.90;;;;;;5081259;22;20048;-52
2022/03/05 11:04:39;;;;;;;31.55;15.15;;;4.60;99.90;;;;;;5071902;28;20119;-54
2022/03/05 11:07:07;;;;;;;28.67;13.93;;;4.80;99.90;;;;;;5071583;28;20072;-52
2022/03/05 11:09:35;;;;;;;32.95;14.60;;;4.70;99.90;;;;;;5070302;28;20049;-53
2022/03/05 11:12:02;;;;;;;36.33;15.40;;;4.70;99.90;;;;;;5071986;28;20041;-50
2022/03/05 11:14:28;;;;;;;33.22;15.95;;;4.70;99.90;;;;;;5070428;28;20059;-50
2022/03/05 11:16:55;;;;;;;32.53;15.57;;;4.90;99.90;;;;;;5070409;28;20032;-50
2022/03/05 11:19:26;;;;;;;32.22;14.32;;;4.90;99.90;;;;;;5071666;28;20036;-48
2022/03/05 11:21:52;;;;;;;28.95;13.18;;;5.00;99.90;;;;;;5071342;28;20078;-50
2022/03/05 11:24:20;;;;;;;36.05;14.98;;;5.10;99.40;;;;;;5071596;28;20392;-50
2022/03/05 11:26:50;;;;;;;33.67;15.23;;;5.10;99.90;;;;;;5070865;28;20041;-49
2022/03/05 11:29:23;;;;;;;31.80;14.75;;;5.20;99.30;;;;;;5070252;28;20400;-49
2022/03/05 11:31:49;;;;;;;31.38;15.48;;;5.20;99.20;;;;;;5071464;28;20040;-51
2022/03/05 11:34:19;;;;;;;32.10;15.35;;;5.20;99.40;;;;;;5071330;28;20036;-50
2022/03/05 11:36:47;;;;;;;29.17;13.60;;;5.30;98.70;;;;;;5071271;28;20425;-49
2022/03/05 11:39:20;;;;;;;31.83;15.07;;;5.40;97.90;;;;;;5071222;28;20045;-49
2022/03/05 11:42:03;;;;;;;32.15;15.93;;;5.30;98.40;;;;;;5071849;28;20488;-50
2022/03/05 11:44:36;;;;;;;36.22;15.52;;;5.40;98.60;;;;;;5071421;28;20036;-52
2022/03/05 11:47:35;;;;;;;28.42;13.75;;;5.50;98.50;;;;;;5071060;28;20043;-51
2022/03/05 11:50:01;;;;;;;35.83;14.77;;;5.60;96.50;;;;;;5064852;28;20040;-52
2022/03/05 11:52:39;;;;;;;33.03;15.95;;;5.50;96.90;;;;;;5070579;28;20052;-52
2022/03/05 11:55:14;;;;;;;31.77;14.80;;;5.60;97.40;;;;;;5058577;28;20045;-53
2022/03/05 11:57:52;;;;;;;30.83;13.88;;;5.60;97.80;;;;;;5067130;28;20060;-53
2022/03/05 12:00:31;;;;;;;34.05;15.23;;;5.60;97.20;;;;;;5068901;28;20037;-50
2022/03/05 12:02:58;;;;;;;34.22;16.17;;;5.70;97.10;;;;;;5071218;28;20131;-49
2022/03/05 12:05:36;;;;;;;32.13;15.65;;;5.70;97.00;;;;;;5071338;28;20040;-52
2022/03/05 12:08:02;;;;;;;34.72;15.30;;;5.70;97.10;;;;;;5061180;28;20041;-50
2022/03/05 12:10:27;;;;;;;35.97;16.33;;;5.70;96.70;;;;;;5052160;28;20041;-50
2022/03/05 12:12:58;;;;;;;36.28;16.02;;;5.70;96.90;;;;;;5068984;28;20523;-50
2022/03/05 12:15:40;;;;;;;32.13;15.40;;;5.80;96.10;;;;;;5068773;28;20036;-49
2022/03/05 12:18:08;;;;;;;;;;;5.90;95.40;;;;;;5068330;28;20040;-50
2022/03/05 12:20:38;;;;;;;34.63;15.40;;;5.80;95.80;;;;;;5062642;28;19917;-53
2022/03/05 12:23:18;;;;;;;31.17;15.45;;;5.90;96.20;;;;;;5069831;28;20033;-51
2022/03/05 12:25:46;;;;;;;32.20;15.98;;;5.90;96.30;;;;;;5070607;28;20115;-52
2022/03/05 12:28:14;;;;;;;34.50;15.98;;;5.90;96.80;;;;;;5073223;28;20040;-48
2022/03/05 12:30:40;;;;;;;31.95;15.18;;;6.00;97.00;;;;;;5064027;28;20037;-53
2022/03/05 12:33:11;;;;;;;30.92;15.20;;;6.10;96.90;;;;;;5071957;28;20043;-49
2022/03/05 12:35:38;;;;;;;39.83;16.92;;;6.10;95.50;;;;;;5063720;28;20045;-52
2022/03/05 12:38:05;;;;;;;31.42;14.93;;;6.10;95.50;;;;;;5057277;28;20040;-53
2022/03/05 12:40:32;;;;;;;33.95;16.27;;;6.20;95.80;;;;;;5057561;28;20055;-52
2022/03/05 12:43:00;;;;;;;32.35;15.70;;;6.20;95.80;;;;;;5067077;28;20033;-49